Time;durP1;ratioP1;P1;durP2;ratioP2;P2;SDS_P1;SDS_P2;PMS_P1;PMS_P2;Temp;Humidity;BMP_temperature;BMP_pressure;BME280_temperature;BME280_humidity;BME280_pressure;Samples;Min_cycle;Max_cycle;Signal;HPM_P1;HPM_P2
2021/11/13 00:00:24;;;;;;;1.67;1.40;;;6.30;98.20;;;;;;4914840;29;20508;-72
2021/11/13 00:02:52;;;;;;;2.13;1.93;;;6.30;98.20;;;;;;4915586;29;20464;-72
2021/11/13 00:05:20;;;;;;;1.60;1.40;;;6.30;98.20;;;;;;4916186;29;20468;-72
2021/11/13 00:07:47;;;;;;;1.60;1.40;;;6.30;98.20;;;;;;4916536;29;20496;-73
2021/11/13 00:10:17;;;;;;;1.60;1.30;;;6.30;98.20;;;;;;4916951;29;20964;-73
2021/11/13 00:12:46;;;;;;;1.60;1.40;;;6.30;98.20;;;;;;4916663;29;20469;-73
2021/11/13 00:15:18;;;;;;;1.63;1.30;;;6.30;98.20;;;;;;4910118;29;20473;-73
2021/11/13 00:17:45;;;;;;;1.60;1.30;;;6.30;98.20;;;;;;4905205;29;20576;-73
2021/11/13 00:20:12;;;;;;;1.60;1.40;;;6.30;98.20;;;;;;4915208;29;20480;-73
2021/11/13 00:22:40;;;;;;;1.60;1.30;;;6.30;98.20;;;;;;4916448;29;21149;-73
2021/11/13 00:25:08;;;;;;;1.60;1.40;;;6.30;98.20;;;;;;4914936;29;20464;-73
2021/11/13 00:27:36;;;;;;;1.70;1.50;;;6.30;98.20;;;;;;4908069;29;20489;-73
2021/11/13 00:30:03;;;;;;;1.67;1.40;;;6.30;98.20;;;;;;4916825;29;20468;-73
2021/11/13 00:32:30;;;;;;;1.60;1.40;;;6.30;98.20;;;;;;4916207;29;20979;-73
2021/11/13 00:34:57;;;;;;;1.93;1.73;;;6.30;98.20;;;;;;4916638;29;20521;-73
2021/11/13 00:37:23;;;;;;;1.70;1.50;;;6.30;98.20;;;;;;4916451;29;20571;-73
2021/11/13 00:39:50;;;;;;;1.67;1.37;;;6.30;98.20;;;;;;4916948;29;20475;-73
2021/11/13 00:42:17;;;;;;;1.60;1.30;;;6.30;98.20;;;;;;4916629;29;20468;-73
2021/11/13 00:44:46;;;;;;;1.60;1.37;;;6.30;98.20;;;;;;4916077;29;20496;-73
2021/11/13 00:47:13;;;;;;;1.70;1.50;;;6.30;98.20;;;;;;4916236;29;20512;-73
2021/11/13 00:49:39;;;;;;;1.60;1.30;;;6.30;98.20;;;;;;4916292;29;20484;-72
2021/11/13 00:52:07;;;;;;;1.60;1.30;;;6.30;98.20;;;;;;4916303;29;20469;-73
2021/11/13 00:54:35;;;;;;;1.60;1.40;;;6.40;98.20;;;;;;4916052;29;20488;-73
2021/11/13 00:57:02;;;;;;;1.70;1.40;;;6.40;98.20;;;;;;4910267;29;20489;-73
2021/11/13 00:59:30;;;;;;;1.67;1.40;;;6.40;98.20;;;;;;4903834;29;20465;-73
2021/11/13 01:01:59;;;;;;;1.60;1.30;;;6.40;98.20;;;;;;4916323;29;20566;-73
2021/11/13 01:04:26;;;;;;;1.60;1.40;;;6.50;98.20;;;;;;4915598;29;20492;-73
2021/11/13 01:06:53;;;;;;;1.60;1.40;;;6.50;98.20;;;;;;4915864;29;20496;-73
2021/11/13 01:09:19;;;;;;;1.60;1.40;;;6.50;98.20;;;;;;4915751;29;20461;-73
2021/11/13 01:11:47;;;;;;;2.23;2.03;;;6.50;98.20;;;;;;4915850;29;20904;-73
2021/11/13 01:14:13;;;;;;;1.60;1.40;;;6.50;98.20;;;;;;4911646;29;20475;-73
2021/11/13 01:16:40;;;;;;;1.60;1.30;;;6.50;98.20;;;;;;4913975;29;20480;-73
2021/11/13 01:19:10;;;;;;;1.70;1.50;;;6.60;98.20;;;;;;4908264;29;20465;-73
2021/11/13 01:21:37;;;;;;;1.60;1.37;;;6.60;98.20;;;;;;4915334;29;20468;-73
2021/11/13 01:24:05;;;;;;;1.63;1.33;;;6.60;98.20;;;;;;4908635;29;20488;-73
2021/11/13 01:26:33;;;;;;;1.60;1.30;;;6.60;98.20;;;;;;4912594;29;20493;-73
2021/11/13 01:29:00;;;;;;;1.63;1.40;;;6.70;98.20;;;;;;4913775;29;20472;-73
2021/11/13 01:31:26;;;;;;;1.60;1.30;;;6.70;98.20;;;;;;4915213;29;20503;-73
2021/11/13 01:33:56;;;;;;;1.60;1.30;;;6.70;98.20;;;;;;4915134;29;20475;-74
2021/11/13 01:36:25;;;;;;;1.60;1.30;;;6.70;98.20;;;;;;4915008;29;20471;-73
2021/11/13 01:38:54;;;;;;;1.60;1.30;;;6.70;98.20;;;;;;4909431;29;20471;-73
2021/11/13 01:41:21;;;;;;;1.60;1.30;;;6.70;98.20;;;;;;4898628;29;20465;-73
2021/11/13 01:43:49;;;;;;;3.87;3.47;;;6.70;98.20;;;;;;4909039;29;20528;-73
2021/11/13 01:46:16;;;;;;;1.60;1.30;;;6.70;98.20;;;;;;4910582;29;20814;-73
2021/11/13 01:48:43;;;;;;;1.63;1.50;;;6.70;98.20;;;;;;4906064;29;20460;-73
2021/11/13 01:51:18;;;;;;;1.60;1.30;;;6.80;98.20;;;;;;4900857;29;20469;-73
2021/11/13 01:53:47;;;;;;;1.70;1.50;;;6.80;98.20;;;;;;4911314;29;20472;-73
2021/11/13 01:56:19;;;;;;;1.77;1.67;;;6.80;98.20;;;;;;4911301;29;20551;-73
2021/11/13 01:58:47;;;;;;;1.60;1.33;;;6.90;98.20;;;;;;4907051;29;20934;-73
2021/11/13 02:01:15;;;;;;;1.70;1.50;;;6.90;98.20;;;;;;4905318;29;20472;-73
2021/11/13 02:03:47;;;;;;;1.93;1.73;;;6.90;98.20;;;;;;4914650;29;20866;-73
2021/11/13 02:06:15;;;;;;;3.70;3.50;;;7.00;98.20;;;;;;4901690;29;20498;-73
2021/11/13 02:08:42;;;;;;;1.70;1.40;;;7.00;98.20;;;;;;4911840;29;20503;-73
2021/11/13 02:11:12;;;;;;;1.60;1.30;;;6.90;98.20;;;;;;4906586;29;20475;-73
2021/11/13 02:13:39;;;;;;;1.60;1.30;;;7.00;98.20;;;;;;4914511;29;20472;-73
2021/11/13 02:16:08;;;;;;;4.70;4.40;;;6.90;98.20;;;;;;4906192;29;20471;-72
2021/11/13 02:18:35;;;;;;;1.60;1.30;;;6.90;98.20;;;;;;4906254;29;20519;-72
2021/11/13 02:21:04;;;;;;;1.60;1.40;;;6.90;98.20;;;;;;4897870;29;20465;-72
2021/11/13 02:23:32;;;;;;;1.60;1.30;;;6.90;98.20;;;;;;4913824;29;21024;-73
2021/11/13 02:25:59;;;;;;;1.60;1.40;;;7.00;98.20;;;;;;4911799;29;20475;-72
2021/11/13 02:28:27;;;;;;;1.60;1.30;;;6.90;98.20;;;;;;4906528;29;20484;-72
2021/11/13 02:30:57;;;;;;;1.60;1.40;;;6.90;98.20;;;;;;4913737;29;20477;-73
2021/11/13 02:33:24;;;;;;;3.87;3.63;;;6.90;98.20;;;;;;4914157;29;20475;-72
2021/11/13 02:35:54;;;;;;;1.60;1.30;;;6.90;98.20;;;;;;4913682;29;20987;-73
2021/11/13 02:38:25;;;;;;;2.37;2.17;;;7.00;98.20;;;;;;4913698;29;20984;-72
2021/11/13 02:40:56;;;;;;;1.60;1.30;;;7.00;98.20;;;;;;4914148;29;20527;-73
2021/11/13 02:43:24;;;;;;;5.10;4.70;;;7.00;98.20;;;;;;4913987;29;20465;-74
2021/11/13 02:45:53;;;;;;;1.60;1.33;;;7.00;98.20;;;;;;4907391;29;20842;-75
2021/11/13 02:48:22;;;;;;;1.60;1.30;;;7.10;98.20;;;;;;4906428;29;20520;-75
2021/11/13 02:50:49;;;;;;;1.70;1.40;;;7.10;98.20;;;;;;4896815;29;21007;-75
2021/11/13 02:53:18;;;;;;;1.60;1.30;;;7.10;98.20;;;;;;4912936;29;20469;-75
2021/11/13 02:55:47;;;;;;;1.63;1.30;;;7.10;98.20;;;;;;4912054;29;20472;-75
2021/11/13 02:58:14;;;;;;;1.60;1.30;;;7.20;98.20;;;;;;4912179;29;20499;-72
2021/11/13 03:00:42;;;;;;;1.70;1.50;;;7.20;98.20;;;;;;4913853;29;20471;-72
2021/11/13 03:03:09;;;;;;;1.60;1.30;;;7.20;98.20;;;;;;4913905;29;20475;-72
2021/11/13 03:05:44;;;;;;;2.33;2.13;;;7.20;98.20;;;;;;4913880;29;20488;-72
2021/11/13 03:08:11;;;;;;;1.60;1.30;;;7.20;98.20;;;;;;4914042;29;20496;-72
2021/11/13 03:10:39;;;;;;;1.60;1.40;;;7.20;98.20;;;;;;4914506;29;20468;-72
2021/11/13 03:13:07;;;;;;;1.60;1.30;;;7.30;98.20;;;;;;4914132;29;20468;-72
2021/11/13 03:15:34;;;;;;;1.60;1.30;;;7.30;98.20;;;;;;4913868;29;20843;-72
2021/11/13 03:18:01;;;;;;;1.60;1.40;;;7.20;98.20;;;;;;4900270;29;20520;-72
2021/11/13 03:20:30;;;;;;;1.70;1.60;;;7.20;98.20;;;;;;4907817;29;20472;-72
2021/11/13 03:22:57;;;;;;;1.60;1.40;;;7.20;98.20;;;;;;4907716;29;20464;-72
2021/11/13 03:25:29;;;;;;;1.60;1.30;;;7.20;98.20;;;;;;4907884;29;20489;-72
2021/11/13 03:28:00;;;;;;;1.60;1.30;;;7.20;98.20;;;;;;4905187;29;20492;-72
2021/11/13 03:30:28;;;;;;;1.60;1.30;;;7.20;98.20;;;;;;4910495;29;20500;-72
2021/11/13 03:32:55;;;;;;;1.60;1.40;;;7.20;98.20;;;;;;4908332;29;20473;-72
2021/11/13 03:35:29;;;;;;;1.70;1.60;;;7.20;98.20;;;;;;4911282;29;20473;-72
2021/11/13 03:37:56;;;;;;;1.70;1.50;;;7.20;98.20;;;;;;4913041;29;20496;-73
2021/11/13 03:40:23;;;;;;;1.60;1.30;;;7.20;98.20;;;;;;4913307;29;20965;-73
2021/11/13 03:42:50;;;;;;;1.60;1.30;;;7.20;98.20;;;;;;4913309;29;20477;-73
2021/11/13 03:45:17;;;;;;;1.60;1.30;;;7.20;98.20;;;;;;4913447;29;20515;-73
2021/11/13 03:47:45;;;;;;;2.73;2.53;;;7.20;98.20;;;;;;4913743;29;20488;-73
2021/11/13 03:50:12;;;;;;;1.70;1.50;;;7.20;98.20;;;;;;4913162;29;20956;-73
2021/11/13 03:52:39;;;;;;;1.63;1.40;;;7.20;98.20;;;;;;4913828;29;20469;-73
2021/11/13 03:55:06;;;;;;;1.60;1.30;;;7.10;98.20;;;;;;4913541;29;20472;-74
2021/11/13 03:57:33;;;;;;;2.53;2.33;;;7.10;98.20;;;;;;4913583;29;20484;-73
2021/11/13 04:00:00;;;;;;;1.60;1.30;;;7.10;98.20;;;;;;4913059;29;20508;-74
2021/11/13 04:02:27;;;;;;;1.70;1.50;;;7.10;98.20;;;;;;4913500;29;20530;-73
2021/11/13 04:04:55;;;;;;;1.60;1.20;;;7.00;98.20;;;;;;4913318;29;20496;-73
2021/11/13 04:07:22;;;;;;;1.60;1.30;;;7.00;98.20;;;;;;4913522;29;20503;-73
2021/11/13 04:09:49;;;;;;;1.60;1.40;;;7.10;98.20;;;;;;4913597;29;20464;-73
2021/11/13 04:12:15;;;;;;;1.60;1.30;;;7.00;98.20;;;;;;4913259;29;20972;-74
2021/11/13 04:14:43;;;;;;;1.60;1.30;;;7.10;98.20;;;;;;4906305;29;21161;-74
2021/11/13 04:17:11;;;;;;;1.63;1.30;;;7.10;98.20;;;;;;4894416;29;20496;-73
2021/11/13 04:19:38;;;;;;;1.60;1.30;;;7.10;98.20;;;;;;4894233;29;20505;-73
2021/11/13 04:22:07;;;;;;;1.60;1.30;;;7.10;98.20;;;;;;4894248;29;20472;-73
2021/11/13 04:24:34;;;;;;;1.60;1.30;;;7.10;98.20;;;;;;4894088;29;20496;-74
2021/11/13 04:27:01;;;;;;;4.57;3.00;;;7.10;98.20;;;;;;4894340;29;20485;-73
2021/11/13 04:29:27;;;;;;;1.70;1.50;;;7.10;98.20;;;;;;4894484;29;20475;-73
2021/11/13 04:31:54;;;;;;;1.70;1.43;;;7.10;98.20;;;;;;4898162;29;20488;-74
2021/11/13 04:34:23;;;;;;;3.10;2.90;;;7.10;98.20;;;;;;4897998;29;20865;-73
2021/11/13 04:36:53;;;;;;;1.60;1.30;;;7.10;98.20;;;;;;4897829;29;20556;-73
2021/11/13 04:39:23;;;;;;;1.60;1.40;;;7.10;98.20;;;;;;4898501;29;20949;-73
2021/11/13 04:41:51;;;;;;;1.60;1.30;;;7.10;98.20;;;;;;4898737;29;20476;-73
2021/11/13 04:44:19;;;;;;;1.60;1.30;;;7.10;98.20;;;;;;4898469;29;20472;-73
2021/11/13 04:46:46;;;;;;;2.37;2.17;;;7.20;98.20;;;;;;4897670;29;20477;-73
2021/11/13 04:49:12;;;;;;;1.60;1.20;;;7.20;98.20;;;;;;4897807;29;20961;-73
2021/11/13 04:51:39;;;;;;;1.70;1.40;;;7.20;98.20;;;;;;4897789;29;20458;-73
2021/11/13 04:54:06;;;;;;;1.60;1.30;;;7.20;98.20;;;;;;4897231;29;20472;-73
2021/11/13 04:56:34;;;;;;;1.60;1.40;;;7.20;98.20;;;;;;4897369;29;20485;-73
2021/11/13 04:59:01;;;;;;;1.60;1.30;;;7.20;98.20;;;;;;4896687;29;20462;-73
2021/11/13 05:01:28;;;;;;;1.60;1.30;;;7.20;98.20;;;;;;4897342;29;20468;-73
2021/11/13 05:03:54;;;;;;;1.60;1.30;;;7.20;98.20;;;;;;4896802;29;20476;-73
2021/11/13 05:06:22;;;;;;;1.60;1.30;;;7.20;98.20;;;;;;4896797;29;20513;-73
2021/11/13 05:08:49;;;;;;;1.63;1.30;;;7.30;98.20;;;;;;4897314;29;20457;-73
2021/11/13 05:11:16;;;;;;;1.60;1.40;;;7.20;98.20;;;;;;4897426;29;20461;-73
2021/11/13 05:13:45;;;;;;;3.30;3.10;;;7.20;98.20;;;;;;4897316;29;20474;-73
2021/11/13 05:16:11;;;;;;;1.60;1.40;;;7.20;98.20;;;;;;4897442;29;20458;-73
2021/11/13 05:18:39;;;;;;;1.70;1.50;;;7.20;98.20;;;;;;4897187;29;20833;-73
2021/11/13 05:21:05;;;;;;;1.60;1.40;;;7.10;98.20;;;;;;4896652;29;20874;-73
2021/11/13 05:23:32;;;;;;;2.17;1.97;;;7.10;98.20;;;;;;4896844;29;20461;-73
2021/11/13 05:25:59;;;;;;;1.60;1.30;;;7.10;98.20;;;;;;4897231;29;20492;-73
2021/11/13 05:28:26;;;;;;;1.70;1.50;;;7.10;98.20;;;;;;4897107;29;20485;-74
2021/11/13 05:30:56;;;;;;;1.70;1.50;;;7.00;98.20;;;;;;4896780;29;20465;-73
2021/11/13 05:33:23;;;;;;;1.60;1.30;;;7.00;98.20;;;;;;4896654;29;20476;-73
2021/11/13 05:35:50;;;;;;;1.60;1.30;;;7.00;98.20;;;;;;4896468;29;20462;-73
2021/11/13 05:38:17;;;;;;;1.63;1.40;;;7.00;98.20;;;;;;4896753;29;20497;-73
2021/11/13 05:40:44;;;;;;;1.60;1.30;;;7.00;98.20;;;;;;4896293;29;21068;-73
2021/11/13 05:43:11;;;;;;;1.60;1.20;;;7.00;98.20;;;;;;4896036;29;20961;-73
2021/11/13 05:45:38;;;;;;;1.60;1.33;;;7.10;98.20;;;;;;4897166;29;21016;-73
2021/11/13 05:48:06;;;;;;;2.53;2.33;;;7.10;98.20;;;;;;4899270;29;20485;-74
2021/11/13 05:50:33;;;;;;;1.60;1.30;;;7.10;98.20;;;;;;4915385;29;20472;-73
2021/11/13 05:53:00;;;;;;;1.60;1.30;;;7.10;98.20;;;;;;4915085;29;20503;-74
2021/11/13 05:55:27;;;;;;;1.60;1.30;;;7.20;98.20;;;;;;4915285;29;20494;-74
2021/11/13 05:57:56;;;;;;;4.97;3.57;;;7.20;98.20;;;;;;4915339;29;20512;-73
2021/11/13 06:00:25;;;;;;;1.60;1.30;;;7.20;98.20;;;;;;4915281;29;20521;-73
2021/11/13 06:02:53;;;;;;;1.60;1.30;;;7.20;98.20;;;;;;4915407;29;20472;-73
2021/11/13 06:05:21;;;;;;;1.60;1.27;;;7.20;98.20;;;;;;4914654;29;20495;-73
2021/11/13 06:07:48;;;;;;;1.60;1.30;;;7.30;98.20;;;;;;4914737;29;20492;-73
2021/11/13 06:10:17;;;;;;;1.67;1.30;;;7.30;98.20;;;;;;4914911;29;20469;-73
2021/11/13 06:12:44;;;;;;;1.80;1.60;;;7.30;98.20;;;;;;4936313;23;22322;-77
2021/11/13 06:15:11;;;;;;;1.70;1.40;;;7.30;98.20;;;;;;4911948;29;20457;-77
2021/11/13 06:17:39;;;;;;;1.60;1.30;;;7.30;98.20;;;;;;4905325;29;20468;-77
2021/11/13 06:20:08;;;;;;;1.60;1.30;;;7.30;98.20;;;;;;4907808;29;21019;-77
2021/11/13 06:22:36;;;;;;;1.60;1.30;;;7.30;98.20;;;;;;4907743;29;20564;-78
2021/11/13 06:25:04;;;;;;;1.60;1.30;;;7.30;98.20;;;;;;4909209;29;20497;-77
2021/11/13 06:27:30;;;;;;;1.60;1.30;;;7.30;98.20;;;;;;4909752;29;20492;-75
2021/11/13 06:29:57;;;;;;;1.60;1.30;;;7.40;98.20;;;;;;4908555;29;20516;-79
2021/11/13 06:32:24;;;;;;;1.60;1.30;;;7.40;98.20;;;;;;4911471;29;20468;-77
2021/11/13 06:34:56;;;;;;;1.60;1.30;;;7.40;98.20;;;;;;4904731;29;20469;-78
2021/11/13 06:37:23;;;;;;;1.60;1.30;;;7.50;98.20;;;;;;4906135;29;20473;-78
2021/11/13 06:39:52;;;;;;;1.60;1.30;;;7.50;98.20;;;;;;4916148;29;20468;-79
2021/11/13 06:42:19;;;;;;;1.60;1.30;;;7.60;98.20;;;;;;4908511;29;20468;-75
2021/11/13 06:44:46;;;;;;;1.60;1.30;;;7.60;98.20;;;;;;4912372;29;20512;-77
2021/11/13 06:47:13;;;;;;;1.70;1.40;;;7.70;98.20;;;;;;4905190;29;20468;-77
2021/11/13 06:49:40;;;;;;;1.60;1.30;;;7.70;98.20;;;;;;4913140;29;20476;-76
2021/11/13 06:52:08;;;;;;;1.60;1.30;;;7.80;98.20;;;;;;4911543;29;20479;-73
2021/11/13 06:54:35;;;;;;;1.60;1.30;;;7.80;98.20;;;;;;4911825;29;20492;-74
2021/11/13 06:57:05;;;;;;;1.60;1.30;;;7.80;98.20;;;;;;4906616;29;20510;-77
2021/11/13 06:59:34;;;;;;;1.60;1.27;;;7.90;98.20;;;;;;4913084;29;20469;-74
2021/11/13 07:02:01;;;;;;;1.60;1.30;;;7.90;98.20;;;;;;4912040;29;20524;-75
2021/11/13 07:04:29;;;;;;;1.60;1.30;;;7.90;98.20;;;;;;4911771;29;20878;-77
2021/11/13 07:06:57;;;;;;;1.60;1.40;;;7.90;98.20;;;;;;4911412;29;20515;-75
2021/11/13 07:09:27;;;;;;;1.60;1.30;;;7.90;98.20;;;;;;4903454;29;20505;-74
2021/11/13 07:11:58;;;;;;;1.60;1.30;;;7.90;98.20;;;;;;4900231;29;20545;-75
2021/11/13 07:14:28;;;;;;;1.60;1.23;;;7.90;98.20;;;;;;4910868;29;20497;-76
2021/11/13 07:16:57;;;;;;;1.60;1.30;;;7.90;98.20;;;;;;4902788;29;20468;-76
2021/11/13 07:19:25;;;;;;;1.60;1.30;;;7.90;98.20;;;;;;4905622;29;20468;-76
2021/11/13 07:21:52;;;;;;;1.63;1.30;;;7.90;98.20;;;;;;4907358;29;20464;-76
2021/11/13 07:24:20;;;;;;;2.23;2.03;;;7.90;98.20;;;;;;4911108;29;20492;-74
2021/11/13 07:26:51;;;;;;;1.67;1.30;;;7.80;98.20;;;;;;4898563;29;20840;-74
2021/11/13 07:29:18;;;;;;;1.60;1.30;;;7.70;98.20;;;;;;4904283;29;20855;-75
2021/11/13 07:31:46;;;;;;;1.60;1.23;;;7.70;98.20;;;;;;4909736;29;21154;-73
2021/11/13 07:34:13;;;;;;;1.63;1.30;;;7.70;98.20;;;;;;4909956;29;20995;-76
2021/11/13 07:36:40;;;;;;;1.60;1.30;;;7.60;98.20;;;;;;4911722;29;20464;-78
2021/11/13 07:39:07;;;;;;;1.60;1.30;;;7.60;98.20;;;;;;4912845;29;20477;-76
2021/11/13 07:41:34;;;;;;;1.60;1.30;;;7.60;98.20;;;;;;4906469;29;20477;-77
2021/11/13 07:44:00;;;;;;;1.60;1.30;;;7.60;98.20;;;;;;4901550;29;20588;-77
2021/11/13 07:46:28;;;;;;;1.60;1.30;;;7.60;98.20;;;;;;4903215;29;21152;-74
2021/11/13 07:48:56;;;;;;;1.60;1.30;;;7.60;98.20;;;;;;4908279;29;20475;-74
2021/11/13 07:51:23;;;;;;;1.60;1.30;;;7.60;98.20;;;;;;4911588;29;20472;-74
2021/11/13 07:53:50;;;;;;;1.60;1.30;;;7.60;98.20;;;;;;4911591;29;20500;-74
2021/11/13 07:56:17;;;;;;;1.60;1.30;;;7.60;98.20;;;;;;4902251;29;20533;-75
2021/11/13 07:58:44;;;;;;;1.60;1.30;;;7.60;98.20;;;;;;4908870;29;20979;-74
2021/11/13 08:01:11;;;;;;;1.60;1.30;;;7.60;98.20;;;;;;4910849;29;20511;-74
2021/11/13 08:03:44;;;;;;;1.60;1.30;;;7.60;98.20;;;;;;4889218;29;20535;-74
2021/11/13 08:06:13;;;;;;;1.60;1.20;;;7.60;98.20;;;;;;4896240;29;20603;-74
2021/11/13 08:08:41;;;;;;;1.67;1.40;;;7.60;98.20;;;;;;4898410;29;20500;-75
2021/11/13 08:11:11;;;;;;;1.60;1.30;;;7.70;98.20;;;;;;4896497;29;20909;-76
2021/11/13 08:13:40;;;;;;;1.60;1.27;;;7.70;98.20;;;;;;4893541;29;20508;-76
2021/11/13 08:16:08;;;;;;;1.60;1.30;;;7.70;98.20;;;;;;4894428;29;20477;-75
2021/11/13 08:18:35;;;;;;;1.60;1.33;;;7.80;98.20;;;;;;4891329;29;21205;-74
2021/11/13 08:21:03;;;;;;;1.60;1.27;;;7.90;98.20;;;;;;4894844;29;21074;-74
2021/11/13 08:23:35;;;;;;;1.60;1.30;;;7.90;98.20;;;;;;4892802;29;20496;-76
2021/11/13 08:26:03;;;;;;;1.60;1.30;;;8.00;98.20;;;;;;4897277;29;20520;-76
2021/11/13 08:29:04;;;;;;;1.60;1.23;;;8.00;98.20;;;;;;4893688;29;21178;-77
2021/11/13 08:31:31;;;;;;;1.60;1.20;;;8.10;98.20;;;;;;4899889;29;20931;-76
2021/11/13 08:33:59;;;;;;;1.60;1.30;;;8.20;98.20;;;;;;4897047;29;20492;-75
2021/11/13 08:36:26;;;;;;;2.33;2.07;;;8.20;98.20;;;;;;4892096;29;20572;-75
2021/11/13 08:38:54;;;;;;;1.60;1.20;;;8.30;98.20;;;;;;4895281;29;20508;-76
2021/11/13 08:41:21;;;;;;;1.60;1.30;;;8.30;98.20;;;;;;4896733;29;20958;-76
2021/11/13 08:43:48;;;;;;;1.60;1.20;;;8.40;98.20;;;;;;4890555;29;21019;-75
2021/11/13 08:46:15;;;;;;;1.63;1.40;;;8.40;98.20;;;;;;4891112;29;20865;-75
2021/11/13 08:48:43;;;;;;;1.63;1.30;;;8.40;98.20;;;;;;4896201;29;20480;-75
2021/11/13 08:51:10;;;;;;;1.60;1.30;;;8.40;98.20;;;;;;4894040;29;20559;-75
2021/11/13 08:53:38;;;;;;;1.60;1.30;;;8.40;98.20;;;;;;4894320;29;20493;-74
2021/11/13 08:56:07;;;;;;;1.60;1.30;;;8.40;98.20;;;;;;4896737;29;20471;-75
2021/11/13 08:58:34;;;;;;;1.80;1.50;;;8.30;98.20;;;;;;4895447;29;20469;-75
2021/11/13 09:01:05;;;;;;;1.60;1.27;;;8.40;98.20;;;;;;4895309;29;21007;-74
2021/11/13 09:03:34;;;;;;;1.60;1.30;;;8.40;98.20;;;;;;4896796;29;20496;-76
2021/11/13 09:06:02;;;;;;;1.60;1.20;;;8.30;98.20;;;;;;4895438;29;21548;-75
2021/11/13 09:08:30;;;;;;;1.60;1.20;;;8.30;98.20;;;;;;4895283;29;20879;-77
2021/11/13 09:10:57;;;;;;;1.70;1.40;;;8.40;98.20;;;;;;4899353;29;20485;-77
2021/11/13 09:13:28;;;;;;;1.60;1.30;;;8.40;98.20;;;;;;4898185;29;20496;-74
2021/11/13 09:15:57;;;;;;;1.60;1.20;;;8.40;98.20;;;;;;4896762;29;20568;-75
2021/11/13 09:18:25;;;;;;;1.60;1.27;;;8.40;98.20;;;;;;4898623;29;20572;-75
2021/11/13 09:20:53;;;;;;;1.60;1.20;;;8.50;98.20;;;;;;4901889;29;21178;-76
2021/11/13 09:23:20;;;;;;;1.60;1.30;;;8.50;98.20;;;;;;4898440;29;20503;-75
2021/11/13 09:25:48;;;;;;;1.60;1.30;;;8.50;98.20;;;;;;4897438;29;20800;-75
2021/11/13 09:28:16;;;;;;;1.60;1.20;;;8.60;98.20;;;;;;4896838;29;20878;-77
2021/11/13 09:30:44;;;;;;;1.60;1.20;;;8.60;98.20;;;;;;4892374;29;20576;-76
2021/11/13 09:33:13;;;;;;;1.60;1.20;;;8.60;98.20;;;;;;4892975;29;20643;-75
2021/11/13 09:35:42;;;;;;;1.60;1.20;;;8.70;98.20;;;;;;4894585;29;20504;-76
2021/11/13 09:38:10;;;;;;;1.60;1.30;;;8.70;98.20;;;;;;4894808;29;20909;-76
2021/11/13 09:40:42;;;;;;;1.70;1.50;;;8.80;98.20;;;;;;4898094;29;20473;-78
2021/11/13 09:43:09;;;;;;;1.60;1.30;;;8.80;98.20;;;;;;4897856;29;20501;-76
2021/11/13 09:45:37;;;;;;;1.60;1.30;;;8.90;98.20;;;;;;4894789;29;20964;-74
2021/11/13 09:48:06;;;;;;;1.70;1.50;;;9.00;98.20;;;;;;4896675;29;20844;-76
2021/11/13 09:50:36;;;;;;;1.60;1.20;;;9.00;98.20;;;;;;4892718;29;20549;-76
2021/11/13 09:53:05;;;;;;;1.60;1.20;;;9.10;98.20;;;;;;4893020;29;20508;-75
2021/11/13 09:55:33;;;;;;;1.60;1.20;;;9.20;98.20;;;;;;4897880;29;20478;-78
2021/11/13 09:58:02;;;;;;;1.60;1.20;;;9.30;98.20;;;;;;4898676;29;20575;-78
2021/11/13 10:00:32;;;;;;;1.67;1.30;;;9.30;98.20;;;;;;4895461;29;20631;-76
2021/11/13 10:03:00;;;;;;;1.60;1.20;;;9.40;98.20;;;;;;4901342;29;20492;-76
2021/11/13 10:05:29;;;;;;;1.60;1.20;;;9.40;98.20;;;;;;4897984;29;20567;-77
2021/11/13 10:07:57;;;;;;;1.60;1.20;;;9.50;98.20;;;;;;4901220;29;20504;-78
2021/11/13 10:10:31;;;;;;;1.60;1.27;;;9.50;98.20;;;;;;4897774;29;20472;-75
2021/11/13 10:12:59;;;;;;;1.63;1.27;;;9.50;98.20;;;;;;4891716;29;20507;-75
2021/11/13 10:15:30;;;;;;;1.60;1.23;;;9.50;98.20;;;;;;4896239;29;20469;-77
2021/11/13 10:18:10;;;;;;;1.63;1.20;;;9.50;98.20;;;;;;4894941;29;21223;-76
2021/11/13 10:20:40;;;;;;;1.60;1.20;;;9.60;98.20;;;;;;4897142;29;21002;-77
2021/11/13 10:23:08;;;;;;;1.60;1.20;;;9.60;98.20;;;;;;4895922;29;21041;-76
2021/11/13 10:25:36;;;;;;;1.60;1.20;;;9.60;98.20;;;;;;4898274;29;20557;-77
2021/11/13 10:28:11;;;;;;;1.60;1.20;;;9.70;98.20;;;;;;4897057;29;20621;-78
2021/11/13 10:33:30;;;;;;;1.60;1.20;;;9.80;98.20;;;;;;4880134;29;21043;-77
2021/11/13 10:35:58;;;;;;;1.70;1.40;;;9.80;98.20;;;;;;4893830;29;20479;-76
2021/11/13 10:38:26;;;;;;;1.60;1.20;;;9.80;98.20;;;;;;4895331;29;20476;-75
2021/11/13 10:40:55;;;;;;;1.60;1.20;;;9.90;98.20;;;;;;4892943;29;21071;-76
2021/11/13 10:43:33;;;;;;;1.60;1.20;;;9.90;98.20;;;;;;4897161;29;23312;-76
2021/11/13 10:46:02;;;;;;;1.60;1.20;;;9.90;98.20;;;;;;4893524;29;20484;-77
2021/11/13 10:48:29;;;;;;;1.60;1.20;;;10.00;98.20;;;;;;4892729;29;20576;-75
2021/11/13 10:51:05;;;;;;;1.60;1.20;;;10.00;98.20;;;;;;4893926;29;20476;-74
2021/11/13 10:53:33;;;;;;;1.60;1.10;;;10.00;98.20;;;;;;4891007;29;20634;-77
2021/11/13 10:56:10;;;;;;;1.60;1.30;;;10.10;98.20;;;;;;4898359;29;20475;-75
2021/11/13 10:58:40;;;;;;;1.60;1.10;;;10.10;98.20;;;;;;4894022;29;20475;-77
2021/11/13 11:01:10;;;;;;;1.60;1.10;;;10.20;98.20;;;;;;4889154;29;20476;-75
2021/11/13 11:06:28;;;;;;;1.60;1.20;;;10.30;98.20;;;;;;4894341;29;20560;-73
2021/11/13 11:08:56;;;;;;;1.60;1.20;;;10.30;98.20;;;;;;4892991;29;20955;-73
2021/11/13 11:11:33;;;;;;;1.60;1.20;;;10.40;98.20;;;;;;4896128;29;20941;-73
2021/11/13 11:14:02;;;;;;;1.60;1.20;;;10.40;98.20;;;;;;4884107;29;20927;-74
2021/11/13 11:16:32;;;;;;;1.60;1.07;;;10.50;98.20;;;;;;4878732;29;20521;-74
2021/11/13 11:19:04;;;;;;;1.60;1.10;;;10.50;98.20;;;;;;4877820;29;20688;-75
2021/11/13 11:22:00;;;;;;;1.60;1.20;;;10.60;98.20;;;;;;4878690;29;20979;-74
2021/11/13 11:24:31;;;;;;;1.60;1.17;;;10.60;98.20;;;;;;4866118;29;20495;-73
2021/11/13 11:27:03;;;;;;;1.60;1.20;;;10.70;98.20;;;;;;4880303;29;20497;-72
2021/11/13 11:29:32;;;;;;;1.60;1.10;;;10.70;98.20;;;;;;4878793;29;20847;-74
2021/11/13 11:32:02;;;;;;;1.60;1.17;;;10.70;98.20;;;;;;4879292;29;20486;-73
2021/11/13 11:34:34;;;;;;;1.60;1.10;;;10.80;98.20;;;;;;4877028;29;20498;-73
2021/11/13 11:37:12;;;;;;;1.60;1.10;;;10.80;98.20;;;;;;4876843;29;20470;-74
2021/11/13 11:39:41;;;;;;;1.60;1.10;;;10.70;98.20;;;;;;4874632;29;20484;-74
2021/11/13 11:42:10;;;;;;;1.70;1.20;;;10.70;98.20;;;;;;4879273;29;20931;-73
2021/11/13 11:44:39;;;;;;;1.60;1.10;;;10.70;98.20;;;;;;4878799;29;20497;-72
2021/11/13 11:47:13;;;;;;;3.53;2.00;;;10.60;98.20;;;;;;4876888;29;20513;-74
2021/11/13 11:49:44;;;;;;;1.60;1.13;;;10.60;98.20;;;;;;4878742;29;20489;-74
2021/11/13 11:52:15;;;;;;;1.60;1.10;;;10.60;98.20;;;;;;4876529;29;20554;-74
2021/11/13 11:54:44;;;;;;;1.60;1.20;;;10.60;98.20;;;;;;4879838;29;20493;-74
2021/11/13 11:57:13;;;;;;;1.60;1.10;;;10.60;98.20;;;;;;4878878;29;21160;-75
2021/11/13 11:59:42;;;;;;;1.60;1.20;;;10.70;98.20;;;;;;4880787;29;21194;-75
2021/11/13 12:02:15;;;;;;;1.60;1.20;;;10.70;98.20;;;;;;4876781;29;20939;-74
2021/11/13 12:04:44;;;;;;;1.60;1.20;;;10.70;98.20;;;;;;4881019;29;20497;-75
2021/11/13 12:07:27;;;;;;;1.60;1.10;;;10.70;98.20;;;;;;4878838;29;20497;-75
2021/11/13 12:09:59;;;;;;;1.60;1.20;;;10.60;98.20;;;;;;4879656;29;20477;-74
2021/11/13 12:12:28;;;;;;;1.70;1.30;;;10.70;98.20;;;;;;4878998;29;20483;-75
2021/11/13 12:15:16;;;;;;;1.70;1.30;;;10.70;98.20;;;;;;4879325;29;20876;-74
2021/11/13 12:17:45;;;;;;;1.60;1.20;;;10.70;98.20;;;;;;4876590;29;20899;-74
2021/11/13 12:20:33;;;;;;;1.60;1.30;;;10.60;98.20;;;;;;4883060;29;20533;-74
2021/11/13 12:23:10;;;;;;;1.60;1.10;;;10.60;98.20;;;;;;4883562;29;20554;-74
2021/11/13 12:25:40;;;;;;;1.60;1.10;;;10.60;98.20;;;;;;4880791;29;20977;-74
2021/11/13 12:28:26;;;;;;;1.60;1.20;;;10.70;98.20;;;;;;4879975;29;20592;-74
2021/11/13 12:31:06;;;;;;;1.67;1.20;;;10.70;98.20;;;;;;4880640;29;20866;-74
2021/11/13 12:33:47;;;;;;;1.60;1.20;;;10.70;98.20;;;;;;4880255;29;20879;-74
2021/11/13 12:36:20;;;;;;;1.60;1.20;;;10.70;98.20;;;;;;4882201;29;20556;-74
2021/11/13 12:38:53;;;;;;;1.60;1.20;;;10.70;98.20;;;;;;4881352;29;20556;-74
2021/11/13 12:41:22;;;;;;;1.60;1.20;;;10.70;98.20;;;;;;4878921;29;20528;-74
2021/11/13 12:44:09;;;;;;;1.60;1.10;;;10.70;98.20;;;;;;4878650;29;21110;-74
2021/11/13 12:46:40;;;;;;;1.60;1.13;;;10.70;98.20;;;;;;4880103;29;20485;-74
2021/11/13 12:49:45;;;;;;;1.60;1.20;;;10.70;98.20;;;;;;4880797;29;20474;-74
2021/11/13 12:52:44;;;;;;;1.70;1.30;;;10.70;98.20;;;;;;4873524;29;20532;-75
2021/11/13 12:55:23;;;;;;;1.60;1.10;;;10.70;98.20;;;;;;4878861;29;20561;-74
2021/11/13 12:58:10;;;;;;;1.60;1.10;;;10.70;98.20;;;;;;4885317;29;20515;-75
2021/11/13 13:00:43;;;;;;;1.60;1.20;;;10.70;98.20;;;;;;4884144;29;20553;-75
2021/11/13 13:03:15;;;;;;;1.60;1.10;;;10.70;98.20;;;;;;4882773;29;20490;-75
2021/11/13 13:05:43;;;;;;;1.60;1.30;;;10.70;98.20;;;;;;4885568;29;20493;-75
2021/11/13 13:08:11;;;;;;;1.60;1.20;;;10.70;98.20;;;;;;4883432;29;20836;-75
2021/11/13 13:10:39;;;;;;;1.60;1.30;;;10.70;98.20;;;;;;4880548;29;20564;-74